sensor_id;sensor_type;location;lat;lon;timestamp;P1;durP1;ratioP1;P2;durP2;ratioP2
7338;SDS011;33747;49.524;8.390;2023-04-16T00:01:46;14.57;;;11.63;;
7338;SDS011;33747;49.524;8.390;2023-04-16T00:04:11;16.73;;;11.85;;
7338;SDS011;33747;49.524;8.390;2023-04-16T00:06:37;13.82;;;11.27;;
7338;SDS011;33747;49.524;8.390;2023-04-16T00:09:02;17.83;;;11.88;;
7338;SDS011;33747;49.524;8.390;2023-04-16T00:11:28;15.65;;;11.13;;
7338;SDS011;33747;49.524;8.390;2023-04-16T00:13:53;13.90;;;11.65;;
7338;SDS011;33747;49.524;8.390;2023-04-16T00:16:18;16.00;;;11.48;;
7338;SDS011;33747;49.524;8.390;2023-04-16T00:18:44;12.77;;;10.98;;
7338;SDS011;33747;49.524;8.390;2023-04-16T00:21:10;14.55;;;10.25;;
7338;SDS011;33747;49.524;8.390;2023-04-16T00:23:35;13.55;;;11.48;;
7338;SDS011;33747;49.524;8.390;2023-04-16T00:26:01;12.98;;;11.05;;
7338;SDS011;33747;49.524;8.390;2023-04-16T00:28:27;12.90;;;11.43;;
7338;SDS011;33747;49.524;8.390;2023-04-16T00:30:52;12.35;;;10.68;;
7338;SDS011;33747;49.524;8.390;2023-04-16T00:33:18;12.95;;;10.50;;
7338;SDS011;33747;49.524;8.390;2023-04-16T00:35:44;11.75;;;10.02;;
7338;SDS011;33747;49.524;8.390;2023-04-16T00:38:10;12.02;;;10.48;;
7338;SDS011;33747;49.524;8.390;2023-04-16T00:40:36;13.15;;;10.45;;
7338;SDS011;33747;49.524;8.390;2023-04-16T00:43:02;15.82;;;10.80;;
7338;SDS011;33747;49.524;8.390;2023-04-16T00:45:27;11.98;;;10.52;;
7338;SDS011;33747;49.524;8.390;2023-04-16T00:47:53;15.32;;;10.88;;
7338;SDS011;33747;49.524;8.390;2023-04-16T00:50:19;11.80;;;10.20;;
7338;SDS011;33747;49.524;8.390;2023-04-16T00:52:48;15.70;;;10.95;;
7338;SDS011;33747;49.524;8.390;2023-04-16T00:55:14;11.85;;;10.52;;
7338;SDS011;33747;49.524;8.390;2023-04-16T00:57:41;13.45;;;10.98;;
7338;SDS011;33747;49.524;8.390;2023-04-16T01:00:07;13.57;;;10.68;;
7338;SDS011;33747;49.524;8.390;2023-04-16T01:02:32;11.57;;;10.23;;
7338;SDS011;33747;49.524;8.390;2023-04-16T01:04:58;13.73;;;10.55;;
7338;SDS011;33747;49.524;8.390;2023-04-16T01:07:24;16.48;;;10.68;;
7338;SDS011;33747;49.524;8.390;2023-04-16T01:09:50;12.68;;;11.02;;
7338;SDS011;33747;49.524;8.390;2023-04-16T01:12:15;14.45;;;11.57;;
7338;SDS011;33747;49.524;8.390;2023-04-16T01:14:40;13.02;;;11.00;;
7338;SDS011;33747;49.524;8.390;2023-04-16T01:17:06;12.45;;;10.55;;
7338;SDS011;33747;49.524;8.390;2023-04-16T01:19:31;13.32;;;11.02;;
7338;SDS011;33747;49.524;8.390;2023-04-16T01:22:00;14.52;;;12.65;;
7338;SDS011;33747;49.524;8.390;2023-04-16T01:24:25;15.50;;;11.82;;
7338;SDS011;33747;49.524;8.390;2023-04-16T01:26:51;15.02;;;12.57;;
7338;SDS011;33747;49.524;8.390;2023-04-16T01:29:16;18.10;;;13.32;;
7338;SDS011;33747;49.524;8.390;2023-04-16T01:31:41;15.57;;;12.50;;
7338;SDS011;33747;49.524;8.390;2023-04-16T01:34:07;14.75;;;11.88;;
7338;SDS011;33747;49.524;8.390;2023-04-16T01:36:32;15.68;;;12.85;;
7338;SDS011;33747;49.524;8.390;2023-04-16T01:38:57;17.30;;;13.27;;
7338;SDS011;33747;49.524;8.390;2023-04-16T01:41:23;19.48;;;13.60;;
7338;SDS011;33747;49.524;8.390;2023-04-16T01:43:48;17.65;;;12.50;;
7338;SDS011;33747;49.524;8.390;2023-04-16T01:46:23;16.73;;;13.23;;
7338;SDS011;33747;49.524;8.390;2023-04-16T01:48:51;14.85;;;12.27;;
7338;SDS011;33747;49.524;8.390;2023-04-16T01:51:18;15.70;;;12.55;;
7338;SDS011;33747;49.524;8.390;2023-04-16T01:53:44;18.55;;;13.27;;
7338;SDS011;33747;49.524;8.390;2023-04-16T01:56:09;18.88;;;14.00;;
7338;SDS011;33747;49.524;8.390;2023-04-16T01:58:35;16.55;;;12.65;;
7338;SDS011;33747;49.524;8.390;2023-04-16T02:01:00;18.17;;;14.32;;
7338;SDS011;33747;49.524;8.390;2023-04-16T02:03:25;17.27;;;13.90;;
7338;SDS011;33747;49.524;8.390;2023-04-16T02:05:51;15.65;;;12.85;;
7338;SDS011;33747;49.524;8.390;2023-04-16T02:08:16;16.08;;;12.85;;
7338;SDS011;33747;49.524;8.390;2023-04-16T02:10:44;19.88;;;13.18;;
7338;SDS011;33747;49.524;8.390;2023-04-16T02:13:11;15.15;;;12.60;;
7338;SDS011;33747;49.524;8.390;2023-04-16T02:15:36;16.85;;;13.90;;
7338;SDS011;33747;49.524;8.390;2023-04-16T02:18:01;15.70;;;12.75;;
7338;SDS011;33747;49.524;8.390;2023-04-16T02:20:27;17.30;;;13.45;;
7338;SDS011;33747;49.524;8.390;2023-04-16T02:22:53;19.98;;;14.18;;
7338;SDS011;33747;49.524;8.390;2023-04-16T02:25:18;17.77;;;13.30;;
7338;SDS011;33747;49.524;8.390;2023-04-16T02:27:43;18.05;;;14.27;;
7338;SDS011;33747;49.524;8.390;2023-04-16T02:30:09;17.52;;;14.05;;
7338;SDS011;33747;49.524;8.390;2023-04-16T02:32:34;16.98;;;13.85;;
7338;SDS011;33747;49.524;8.390;2023-04-16T02:35:00;18.42;;;14.00;;
7338;SDS011;33747;49.524;8.390;2023-04-16T02:37:27;19.02;;;14.85;;
7338;SDS011;33747;49.524;8.390;2023-04-16T02:39:53;18.40;;;13.98;;
7338;SDS011;33747;49.524;8.390;2023-04-16T02:42:18;16.77;;;13.23;;
7338;SDS011;33747;49.524;8.390;2023-04-16T02:44:44;17.27;;;14.55;;
7338;SDS011;33747;49.524;8.390;2023-04-16T02:47:09;20.73;;;14.80;;
7338;SDS011;33747;49.524;8.390;2023-04-16T02:49:35;18.75;;;14.23;;
7338;SDS011;33747;49.524;8.390;2023-04-16T02:52:00;23.95;;;15.45;;
7338;SDS011;33747;49.524;8.390;2023-04-16T02:54:26;18.30;;;14.90;;
7338;SDS011;33747;49.524;8.390;2023-04-16T02:56:51;21.65;;;15.68;;
7338;SDS011;33747;49.524;8.390;2023-04-16T02:59:16;20.08;;;15.40;;
7338;SDS011;33747;49.524;8.390;2023-04-16T03:01:42;23.40;;;16.30;;
7338;SDS011;33747;49.524;8.390;2023-04-16T03:04:07;20.25;;;15.43;;
7338;SDS011;33747;49.524;8.390;2023-04-16T03:06:33;24.30;;;15.57;;
7338;SDS011;33747;49.524;8.390;2023-04-16T03:08:58;22.15;;;15.23;;
7338;SDS011;33747;49.524;8.390;2023-04-16T03:11:24;22.63;;;15.10;;
7338;SDS011;33747;49.524;8.390;2023-04-16T03:13:49;20.92;;;15.48;;
7338;SDS011;33747;49.524;8.390;2023-04-16T03:16:14;18.88;;;14.30;;
7338;SDS011;33747;49.524;8.390;2023-04-16T03:18:40;21.88;;;16.00;;
7338;SDS011;33747;49.524;8.390;2023-04-16T03:21:05;22.40;;;16.35;;
7338;SDS011;33747;49.524;8.390;2023-04-16T03:23:30;21.38;;;15.68;;
7338;SDS011;33747;49.524;8.390;2023-04-16T03:25:56;26.98;;;16.08;;
7338;SDS011;33747;49.524;8.390;2023-04-16T03:28:21;20.40;;;15.30;;
7338;SDS011;33747;49.524;8.390;2023-04-16T03:30:50;19.33;;;15.02;;
7338;SDS011;33747;49.524;8.390;2023-04-16T03:33:16;24.35;;;15.00;;
7338;SDS011;33747;49.524;8.390;2023-04-16T03:35:42;20.15;;;15.85;;
7338;SDS011;33747;49.524;8.390;2023-04-16T03:38:07;20.17;;;15.57;;
7338;SDS011;33747;49.524;8.390;2023-04-16T03:40:33;20.92;;;15.10;;
7338;SDS011;33747;49.524;8.390;2023-04-16T03:42:58;19.80;;;14.70;;
7338;SDS011;33747;49.524;8.390;2023-04-16T03:45:23;22.98;;;14.90;;
7338;SDS011;33747;49.524;8.390;2023-04-16T03:47:49;22.95;;;16.25;;
7338;SDS011;33747;49.524;8.390;2023-04-16T03:50:17;21.38;;;15.13;;
7338;SDS011;33747;49.524;8.390;2023-04-16T03:52:43;23.02;;;16.80;;
7338;SDS011;33747;49.524;8.390;2023-04-16T03:55:09;20.98;;;15.35;;
7338;SDS011;33747;49.524;8.390;2023-04-16T03:57:34;22.42;;;15.30;;
7338;SDS011;33747;49.524;8.390;2023-04-16T03:59:59;25.40;;;16.73;;
7338;SDS011;33747;49.524;8.390;2023-04-16T04:02:25;22.92;;;16.13;;
7338;SDS011;33747;49.524;8.390;2023-04-16T04:04:51;25.77;;;17.17;;
7338;SDS011;33747;49.524;8.390;2023-04-16T04:07:16;22.00;;;15.13;;
7338;SDS011;33747;49.524;8.390;2023-04-16T04:09:41;22.23;;;14.57;;
7338;SDS011;33747;49.524;8.390;2023-04-16T04:12:07;21.10;;;14.98;;
7338;SDS011;33747;49.524;8.390;2023-04-16T04:14:33;21.13;;;14.27;;
7338;SDS011;33747;49.524;8.390;2023-04-16T04:17:05;20.52;;;14.20;;
7338;SDS011;33747;49.524;8.390;2023-04-16T04:19:30;22.20;;;13.88;;
7338;SDS011;33747;49.524;8.390;2023-04-16T04:21:56;20.85;;;14.05;;
7338;SDS011;33747;49.524;8.390;2023-04-16T04:24:21;18.75;;;13.23;;
7338;SDS011;33747;49.524;8.390;2023-04-16T04:26:46;18.25;;;12.77;;
7338;SDS011;33747;49.524;8.390;2023-04-16T04:29:12;16.73;;;12.32;;
7338;SDS011;33747;49.524;8.390;2023-04-16T04:31:37;18.75;;;13.32;;
7338;SDS011;33747;49.524;8.390;2023-04-16T04:34:03;18.92;;;13.15;;
7338;SDS011;33747;49.524;8.390;2023-04-16T04:36:28;17.40;;;12.10;;
7338;SDS011;33747;49.524;8.390;2023-04-16T04:38:53;18.15;;;12.52;;
7338;SDS011;33747;49.524;8.390;2023-04-16T04:41:19;17.05;;;11.65;;
7338;SDS011;33747;49.524;8.390;2023-04-16T04:43:45;16.73;;;11.05;;
7338;SDS011;33747;49.524;8.390;2023-04-16T04:46:11;18.90;;;11.95;;
7338;SDS011;33747;49.524;8.390;2023-04-16T04:48:36;20.42;;;12.05;;
7338;SDS011;33747;49.524;8.390;2023-04-16T04:51:01;15.50;;;11.27;;
7338;SDS011;33747;49.524;8.390;2023-04-16T04:53:28;13.65;;;10.95;;
7338;SDS011;33747;49.524;8.390;2023-04-16T04:55:53;15.65;;;10.88;;
7338;SDS011;33747;49.524;8.390;2023-04-16T04:58:19;15.60;;;10.82;;
7338;SDS011;33747;49.524;8.390;2023-04-16T05:00:44;14.82;;;10.82;;
7338;SDS011;33747;49.524;8.390;2023-04-16T05:03:10;14.25;;;10.10;;
7338;SDS011;33747;49.524;8.390;2023-04-16T05:05:36;13.57;;;9.88;;
7338;SDS011;33747;49.524;8.390;2023-04-16T05:08:05;13.60;;;9.52;;
7338;SDS011;33747;49.524;8.390;2023-04-16T05:10:30;14.40;;;9.50;;
7338;SDS011;33747;49.524;8.390;2023-04-16T05:12:55;13.40;;;9.25;;
7338;SDS011;33747;49.524;8.390;2023-04-16T05:15:21;12.57;;;9.48;;
7338;SDS011;33747;49.524;8.390;2023-04-16T05:17:46;12.05;;;9.10;;
7338;SDS011;33747;49.524;8.390;2023-04-16T05:20:12;11.35;;;9.38;;
7338;SDS011;33747;49.524;8.390;2023-04-16T05:22:37;13.00;;;9.32;;
7338;SDS011;33747;49.524;8.390;2023-04-16T05:25:03;13.35;;;10.23;;
7338;SDS011;33747;49.524;8.390;2023-04-16T05:27:28;12.77;;;9.77;;
7338;SDS011;33747;49.524;8.390;2023-04-16T05:29:53;14.25;;;10.18;;
7338;SDS011;33747;49.524;8.390;2023-04-16T05:32:19;13.18;;;10.05;;
7338;SDS011;33747;49.524;8.390;2023-04-16T05:34:44;15.75;;;9.80;;
7338;SDS011;33747;49.524;8.390;2023-04-16T05:37:10;12.38;;;9.63;;
7338;SDS011;33747;49.524;8.390;2023-04-16T05:39:35;13.20;;;9.70;;
7338;SDS011;33747;49.524;8.390;2023-04-16T05:42:00;14.88;;;10.27;;
7338;SDS011;33747;49.524;8.390;2023-04-16T05:44:26;15.43;;;10.27;;
7338;SDS011;33747;49.524;8.390;2023-04-16T05:46:51;15.55;;;10.23;;
7338;SDS011;33747;49.524;8.390;2023-04-16T05:49:16;14.73;;;9.98;;
7338;SDS011;33747;49.524;8.390;2023-04-16T05:51:46;16.05;;;11.15;;
7338;SDS011;33747;49.524;8.390;2023-04-16T05:54:11;18.45;;;10.75;;
7338;SDS011;33747;49.524;8.390;2023-04-16T05:56:37;16.50;;;11.82;;
7338;SDS011;33747;49.524;8.390;2023-04-16T05:59:02;18.67;;;11.50;;
7338;SDS011;33747;49.524;8.390;2023-04-16T06:01:27;15.20;;;10.75;;
7338;SDS011;33747;49.524;8.390;2023-04-16T06:03:53;16.27;;;11.15;;
7338;SDS011;33747;49.524;8.390;2023-04-16T06:06:18;15.98;;;10.30;;
7338;SDS011;33747;49.524;8.390;2023-04-16T06:08:44;15.07;;;10.82;;
7338;SDS011;33747;49.524;8.390;2023-04-16T06:11:09;16.88;;;11.35;;
7338;SDS011;33747;49.524;8.390;2023-04-16T06:13:35;14.65;;;11.27;;
7338;SDS011;33747;49.524;8.390;2023-04-16T06:16:01;18.98;;;11.25;;
7338;SDS011;33747;49.524;8.390;2023-04-16T06:18:26;15.85;;;11.63;;
7338;SDS011;33747;49.524;8.390;2023-04-16T06:20:52;16.52;;;11.43;;
7338;SDS011;33747;49.524;8.390;2023-04-16T06:23:17;15.38;;;11.32;;
7338;SDS011;33747;49.524;8.390;2023-04-16T06:25:42;21.35;;;13.18;;
7338;SDS011;33747;49.524;8.390;2023-04-16T06:28:08;19.17;;;12.73;;
7338;SDS011;33747;49.524;8.390;2023-04-16T06:30:33;23.50;;;13.15;;
7338;SDS011;33747;49.524;8.390;2023-04-16T06:32:59;17.65;;;11.75;;
7338;SDS011;33747;49.524;8.390;2023-04-16T06:35:24;20.05;;;13.02;;
7338;SDS011;33747;49.524;8.390;2023-04-16T06:37:49;19.23;;;12.90;;
7338;SDS011;33747;49.524;8.390;2023-04-16T06:40:15;16.08;;;11.75;;
7338;SDS011;33747;49.524;8.390;2023-04-16T06:42:41;20.42;;;13.27;;
7338;SDS011;33747;49.524;8.390;2023-04-16T06:45:06;21.13;;;13.65;;
7338;SDS011;33747;49.524;8.390;2023-04-16T06:47:32;18.70;;;12.52;;
7338;SDS011;33747;49.524;8.390;2023-04-16T06:49:58;19.92;;;13.32;;
7338;SDS011;33747;49.524;8.390;2023-04-16T06:52:23;20.40;;;12.90;;
7338;SDS011;33747;49.524;8.390;2023-04-16T06:54:48;21.83;;;13.25;;
7338;SDS011;33747;49.524;8.390;2023-04-16T06:57:14;19.45;;;13.43;;
7338;SDS011;33747;49.524;8.390;2023-04-16T06:59:40;21.20;;;13.55;;
7338;SDS011;33747;49.524;8.390;2023-04-16T07:02:06;19.83;;;12.57;;
7338;SDS011;33747;49.524;8.390;2023-04-16T07:04:33;22.08;;;13.65;;
7338;SDS011;33747;49.524;8.390;2023-04-16T07:06:59;19.75;;;13.35;;
7338;SDS011;33747;49.524;8.390;2023-04-16T07:09:24;17.60;;;12.40;;
7338;SDS011;33747;49.524;8.390;2023-04-16T07:11:51;21.88;;;12.73;;
7338;SDS011;33747;49.524;8.390;2023-04-16T07:14:16;19.20;;;13.45;;
7338;SDS011;33747;49.524;8.390;2023-04-16T07:16:42;17.52;;;12.25;;
7338;SDS011;33747;49.524;8.390;2023-04-16T07:19:07;20.40;;;13.18;;
7338;SDS011;33747;49.524;8.390;2023-04-16T07:21:32;18.98;;;12.70;;
7338;SDS011;33747;49.524;8.390;2023-04-16T07:23:58;24.70;;;14.13;;
7338;SDS011;33747;49.524;8.390;2023-04-16T07:26:23;16.25;;;12.50;;
7338;SDS011;33747;49.524;8.390;2023-04-16T07:28:48;20.02;;;12.68;;
7338;SDS011;33747;49.524;8.390;2023-04-16T07:31:14;17.92;;;13.35;;
7338;SDS011;33747;49.524;8.390;2023-04-16T07:33:39;19.65;;;12.32;;
7338;SDS011;33747;49.524;8.390;2023-04-16T07:36:05;18.73;;;12.30;;
7338;SDS011;33747;49.524;8.390;2023-04-16T07:38:30;18.42;;;12.48;;
7338;SDS011;33747;49.524;8.390;2023-04-16T07:40:55;16.00;;;11.48;;
7338;SDS011;33747;49.524;8.390;2023-04-16T07:43:21;16.83;;;11.93;;
7338;SDS011;33747;49.524;8.390;2023-04-16T07:45:46;21.40;;;13.07;;
7338;SDS011;33747;49.524;8.390;2023-04-16T07:48:12;22.00;;;13.20;;
7338;SDS011;33747;49.524;8.390;2023-04-16T07:50:37;17.77;;;11.85;;
7338;SDS011;33747;49.524;8.390;2023-04-16T07:53:03;17.55;;;11.93;;
7338;SDS011;33747;49.524;8.390;2023-04-16T07:55:29;18.38;;;12.05;;
7338;SDS011;33747;49.524;8.390;2023-04-16T07:57:55;18.80;;;12.27;;
7338;SDS011;33747;49.524;8.390;2023-04-16T08:00:20;19.05;;;11.63;;
7338;SDS011;33747;49.524;8.390;2023-04-16T08:02:45;18.60;;;12.15;;
7338;SDS011;33747;49.524;8.390;2023-04-16T08:05:11;19.33;;;12.80;;
7338;SDS011;33747;49.524;8.390;2023-04-16T08:07:37;19.83;;;12.32;;
7338;SDS011;33747;49.524;8.390;2023-04-16T08:10:02;18.35;;;12.13;;
7338;SDS011;33747;49.524;8.390;2023-04-16T08:12:27;15.57;;;10.77;;
7338;SDS011;33747;49.524;8.390;2023-04-16T08:14:53;16.65;;;11.65;;
7338;SDS011;33747;49.524;8.390;2023-04-16T08:17:18;17.02;;;10.65;;
7338;SDS011;33747;49.524;8.390;2023-04-16T08:19:44;17.55;;;11.45;;
7338;SDS011;33747;49.524;8.390;2023-04-16T08:22:10;15.48;;;10.70;;
7338;SDS011;33747;49.524;8.390;2023-04-16T08:24:36;15.90;;;10.35;;
7338;SDS011;33747;49.524;8.390;2023-04-16T08:27:01;14.13;;;10.02;;
7338;SDS011;33747;49.524;8.390;2023-04-16T08:29:27;12.02;;;8.85;;
7338;SDS011;33747;49.524;8.390;2023-04-16T08:31:52;13.35;;;9.80;;
7338;SDS011;33747;49.524;8.390;2023-04-16T08:34:18;14.02;;;9.20;;
7338;SDS011;33747;49.524;8.390;2023-04-16T08:36:43;12.65;;;9.13;;
7338;SDS011;33747;49.524;8.390;2023-04-16T08:39:09;13.27;;;9.73;;
7338;SDS011;33747;49.524;8.390;2023-04-16T08:41:35;13.98;;;8.52;;
7338;SDS011;33747;49.524;8.390;2023-04-16T08:44:04;11.65;;;9.20;;
7338;SDS011;33747;49.524;8.390;2023-04-16T08:46:33;12.65;;;8.43;;
7338;SDS011;33747;49.524;8.390;2023-04-16T08:49:01;13.73;;;8.93;;
7338;SDS011;33747;49.524;8.390;2023-04-16T08:51:28;12.57;;;8.63;;
7338;SDS011;33747;49.524;8.390;2023-04-16T08:53:58;12.43;;;9.15;;
7338;SDS011;33747;49.524;8.390;2023-04-16T08:56:24;13.30;;;9.63;;
7338;SDS011;33747;49.524;8.390;2023-04-16T08:58:50;13.95;;;9.88;;
7338;SDS011;33747;49.524;8.390;2023-04-16T09:01:16;12.63;;;9.70;;
7338;SDS011;33747;49.524;8.390;2023-04-16T09:03:46;12.05;;;8.90;;
7338;SDS011;33747;49.524;8.390;2023-04-16T09:06:12;15.63;;;9.82;;
7338;SDS011;33747;49.524;8.390;2023-04-16T09:08:38;15.32;;;9.90;;
7338;SDS011;33747;49.524;8.390;2023-04-16T09:11:04;14.98;;;9.57;;
7338;SDS011;33747;49.524;8.390;2023-04-16T09:13:30;14.85;;;9.98;;
7338;SDS011;33747;49.524;8.390;2023-04-16T09:15:56;15.52;;;9.88;;
7338;SDS011;33747;49.524;8.390;2023-04-16T09:18:21;13.43;;;10.07;;
7338;SDS011;33747;49.524;8.390;2023-04-16T09:20:48;16.00;;;10.25;;
7338;SDS011;33747;49.524;8.390;2023-04-16T09:23:13;16.20;;;10.15;;
7338;SDS011;33747;49.524;8.390;2023-04-16T09:25:39;16.58;;;11.35;;
7338;SDS011;33747;49.524;8.390;2023-04-16T09:28:04;16.45;;;11.35;;
7338;SDS011;33747;49.524;8.390;2023-04-16T09:30:30;19.88;;;12.15;;
7338;SDS011;33747;49.524;8.390;2023-04-16T09:33:11;17.88;;;11.93;;
7338;SDS011;33747;49.524;8.390;2023-04-16T09:35:43;19.73;;;12.68;;
7338;SDS011;33747;49.524;8.390;2023-04-16T09:38:12;17.88;;;13.05;;
7338;SDS011;33747;49.524;8.390;2023-04-16T09:40:37;19.88;;;12.25;;
7338;SDS011;33747;49.524;8.390;2023-04-16T09:43:10;19.50;;;12.18;;
7338;SDS011;33747;49.524;8.390;2023-04-16T09:45:46;20.63;;;12.37;;
7338;SDS011;33747;49.524;8.390;2023-04-16T09:48:28;19.63;;;12.95;;
7338;SDS011;33747;49.524;8.390;2023-04-16T09:50:54;17.55;;;12.25;;
7338;SDS011;33747;49.524;8.390;2023-04-16T09:53:23;17.50;;;11.88;;
7338;SDS011;33747;49.524;8.390;2023-04-16T09:55:56;18.30;;;12.50;;
7338;SDS011;33747;49.524;8.390;2023-04-16T09:58:22;19.58;;;12.93;;
7338;SDS011;33747;49.524;8.390;2023-04-16T10:00:48;17.48;;;11.88;;
7338;SDS011;33747;49.524;8.390;2023-04-16T10:03:14;16.40;;;11.50;;
7338;SDS011;33747;49.524;8.390;2023-04-16T10:05:40;17.08;;;12.25;;
7338;SDS011;33747;49.524;8.390;2023-04-16T10:08:10;17.88;;;11.50;;
7338;SDS011;33747;49.524;8.390;2023-04-16T10:10:37;23.90;;;12.88;;
7338;SDS011;33747;49.524;8.390;2023-04-16T10:13:02;18.55;;;13.25;;
7338;SDS011;33747;49.524;8.390;2023-04-16T10:15:27;19.88;;;12.80;;
7338;SDS011;33747;49.524;8.390;2023-04-16T10:17:53;20.90;;;13.02;;
7338;SDS011;33747;49.524;8.390;2023-04-16T10:20:19;17.83;;;13.85;;
7338;SDS011;33747;49.524;8.390;2023-04-16T10:22:45;16.13;;;12.35;;
7338;SDS011;33747;49.524;8.390;2023-04-16T10:25:10;24.25;;;14.50;;
7338;SDS011;33747;49.524;8.390;2023-04-16T10:27:36;20.30;;;13.43;;
7338;SDS011;33747;49.524;8.390;2023-04-16T10:30:02;23.77;;;13.75;;
7338;SDS011;33747;49.524;8.390;2023-04-16T10:32:27;19.02;;;12.80;;
7338;SDS011;33747;49.524;8.390;2023-04-16T10:34:55;20.27;;;13.40;;
7338;SDS011;33747;49.524;8.390;2023-04-16T10:37:28;19.45;;;13.38;;
7338;SDS011;33747;49.524;8.390;2023-04-16T10:39:55;19.08;;;12.65;;
7338;SDS011;33747;49.524;8.390;2023-04-16T10:42:20;21.55;;;13.35;;
7338;SDS011;33747;49.524;8.390;2023-04-16T10:44:45;18.25;;;12.80;;
7338;SDS011;33747;49.524;8.390;2023-04-16T10:47:12;19.13;;;13.20;;
7338;SDS011;33747;49.524;8.390;2023-04-16T10:49:37;15.63;;;12.40;;
7338;SDS011;33747;49.524;8.390;2023-04-16T10:52:09;17.95;;;12.30;;
7338;SDS011;33747;49.524;8.390;2023-04-16T10:54:36;16.23;;;12.45;;
7338;SDS011;33747;49.524;8.390;2023-04-16T10:57:02;17.45;;;12.73;;
7338;SDS011;33747;49.524;8.390;2023-04-16T10:59:29;21.75;;;13.65;;
7338;SDS011;33747;49.524;8.390;2023-04-16T11:01:57;20.80;;;13.23;;
7338;SDS011;33747;49.524;8.390;2023-04-16T11:09:52;19.00;;;13.73;;
7338;SDS011;33747;49.524;8.390;2023-04-16T11:12:23;22.15;;;14.50;;
7338;SDS011;33747;49.524;8.390;2023-04-16T11:15:00;21.27;;;14.30;;
7338;SDS011;33747;49.524;8.390;2023-04-16T11:20:22;25.02;;;14.43;;
7338;SDS011;33747;49.524;8.390;2023-04-16T11:22:48;21.30;;;14.05;;
7338;SDS011;33747;49.524;8.390;2023-04-16T11:25:21;21.65;;;14.85;;
7338;SDS011;33747;49.524;8.390;2023-04-16T11:27:49;26.58;;;15.20;;
7338;SDS011;33747;49.524;8.390;2023-04-16T11:30:15;19.75;;;14.18;;
7338;SDS011;33747;49.524;8.390;2023-04-16T11:32:43;20.23;;;14.38;;
7338;SDS011;33747;49.524;8.390;2023-04-16T11:37:38;20.27;;;13.88;;
7338;SDS011;33747;49.524;8.390;2023-04-16T11:40:04;24.55;;;15.27;;
7338;SDS011;33747;49.524;8.390;2023-04-16T11:42:31;22.60;;;15.05;;
7338;SDS011;33747;49.524;8.390;2023-04-16T11:44:57;24.17;;;14.68;;
7338;SDS011;33747;49.524;8.390;2023-04-16T11:47:26;23.77;;;15.52;;
7338;SDS011;33747;49.524;8.390;2023-04-16T11:49:52;24.85;;;15.63;;
7338;SDS011;33747;49.524;8.390;2023-04-16T11:52:28;23.00;;;15.52;;
7338;SDS011;33747;49.524;8.390;2023-04-16T11:54:55;24.98;;;14.75;;
7338;SDS011;33747;49.524;8.390;2023-04-16T11:59:49;22.55;;;14.70;;
7338;SDS011;33747;49.524;8.390;2023-04-16T12:02:15;23.73;;;15.50;;
7338;SDS011;33747;49.524;8.390;2023-04-16T12:04:40;24.17;;;16.55;;
7338;SDS011;33747;49.524;8.390;2023-04-16T12:07:12;22.40;;;14.48;;
7338;SDS011;33747;49.524;8.390;2023-04-16T12:09:39;22.33;;;15.18;;
7338;SDS011;33747;49.524;8.390;2023-04-16T12:12:23;21.13;;;13.88;;
7338;SDS011;33747;49.524;8.390;2023-04-16T12:14:54;22.65;;;16.58;;
7338;SDS011;33747;49.524;8.390;2023-04-16T12:17:20;25.30;;;15.45;;
7338;SDS011;33747;49.524;8.390;2023-04-16T12:22:15;25.23;;;15.23;;
7338;SDS011;33747;49.524;8.390;2023-04-16T12:24:41;20.90;;;14.90;;
7338;SDS011;33747;49.524;8.390;2023-04-16T12:27:06;21.27;;;14.50;;
7338;SDS011;33747;49.524;8.390;2023-04-16T12:29:32;21.48;;;14.07;;
7338;SDS011;33747;49.524;8.390;2023-04-16T12:31:58;24.08;;;15.35;;
7338;SDS011;33747;49.524;8.390;2023-04-16T12:34:23;21.08;;;13.63;;
7338;SDS011;33747;49.524;8.390;2023-04-16T12:37:02;21.85;;;14.57;;
7338;SDS011;33747;49.524;8.390;2023-04-16T12:39:33;20.77;;;14.32;;
7338;SDS011;33747;49.524;8.390;2023-04-16T12:41:58;21.77;;;15.73;;
7338;SDS011;33747;49.524;8.390;2023-04-16T12:44:25;22.88;;;15.20;;
7338;SDS011;33747;49.524;8.390;2023-04-16T12:46:51;23.98;;;16.33;;
7338;SDS011;33747;49.524;8.390;2023-04-16T12:49:17;22.13;;;15.40;;
7338;SDS011;33747;49.524;8.390;2023-04-16T12:51:42;27.40;;;15.63;;
7338;SDS011;33747;49.524;8.390;2023-04-16T12:54:07;21.80;;;15.80;;
7338;SDS011;33747;49.524;8.390;2023-04-16T12:56:33;23.02;;;15.20;;
7338;SDS011;33747;49.524;8.390;2023-04-16T12:58:59;24.13;;;16.63;;
7338;SDS011;33747;49.524;8.390;2023-04-16T13:01:25;27.45;;;16.92;;
7338;SDS011;33747;49.524;8.390;2023-04-16T13:03:50;32.17;;;17.00;;
7338;SDS011;33747;49.524;8.390;2023-04-16T13:06:16;23.13;;;15.68;;
7338;SDS011;33747;49.524;8.390;2023-04-16T13:08:42;25.85;;;16.45;;
7338;SDS011;33747;49.524;8.390;2023-04-16T13:11:08;25.35;;;16.33;;
7338;SDS011;33747;49.524;8.390;2023-04-16T13:13:34;25.70;;;17.13;;
7338;SDS011;33747;49.524;8.390;2023-04-16T13:16:00;29.55;;;16.70;;
7338;SDS011;33747;49.524;8.390;2023-04-16T13:18:27;23.58;;;16.48;;
7338;SDS011;33747;49.524;8.390;2023-04-16T13:20:53;23.88;;;17.67;;
7338;SDS011;33747;49.524;8.390;2023-04-16T13:23:18;27.17;;;17.70;;
7338;SDS011;33747;49.524;8.390;2023-04-16T13:25:44;24.88;;;17.10;;
7338;SDS011;33747;49.524;8.390;2023-04-16T13:28:09;27.98;;;17.48;;
7338;SDS011;33747;49.524;8.390;2023-04-16T13:30:35;25.90;;;17.63;;
7338;SDS011;33747;49.524;8.390;2023-04-16T13:33:00;25.58;;;16.67;;
7338;SDS011;33747;49.524;8.390;2023-04-16T13:35:25;25.88;;;16.80;;
7338;SDS011;33747;49.524;8.390;2023-04-16T13:37:51;28.13;;;17.58;;
7338;SDS011;33747;49.524;8.390;2023-04-16T13:40:16;26.20;;;18.52;;
7338;SDS011;33747;49.524;8.390;2023-04-16T13:42:42;29.65;;;17.65;;
7338;SDS011;33747;49.524;8.390;2023-04-16T13:45:07;27.83;;;18.55;;
7338;SDS011;33747;49.524;8.390;2023-04-16T13:47:33;30.80;;;18.63;;
7338;SDS011;33747;49.524;8.390;2023-04-16T13:49:59;27.38;;;18.58;;
7338;SDS011;33747;49.524;8.390;2023-04-16T13:52:24;29.25;;;18.20;;
7338;SDS011;33747;49.524;8.390;2023-04-16T13:54:50;25.98;;;17.92;;
7338;SDS011;33747;49.524;8.390;2023-04-16T13:57:15;29.20;;;18.58;;
7338;SDS011;33747;49.524;8.390;2023-04-16T13:59:42;25.52;;;18.00;;
7338;SDS011;33747;49.524;8.390;2023-04-16T14:02:07;31.73;;;19.67;;
7338;SDS011;33747;49.524;8.390;2023-04-16T14:04:34;29.52;;;17.63;;
7338;SDS011;33747;49.524;8.390;2023-04-16T14:07:00;30.15;;;19.05;;
7338;SDS011;33747;49.524;8.390;2023-04-16T14:09:25;26.33;;;17.73;;
7338;SDS011;33747;49.524;8.390;2023-04-16T14:11:51;31.88;;;19.38;;
7338;SDS011;33747;49.524;8.390;2023-04-16T14:14:16;30.85;;;17.80;;
7338;SDS011;33747;49.524;8.390;2023-04-16T14:16:42;27.17;;;18.15;;
7338;SDS011;33747;49.524;8.390;2023-04-16T14:19:07;24.73;;;17.55;;
7338;SDS011;33747;49.524;8.390;2023-04-16T14:21:33;29.40;;;18.55;;
7338;SDS011;33747;49.524;8.390;2023-04-16T14:23:58;28.13;;;17.20;;
7338;SDS011;33747;49.524;8.390;2023-04-16T14:26:24;30.48;;;18.73;;
7338;SDS011;33747;49.524;8.390;2023-04-16T14:28:49;33.47;;;20.25;;
7338;SDS011;33747;49.524;8.390;2023-04-16T14:31:15;27.98;;;18.50;;
7338;SDS011;33747;49.524;8.390;2023-04-16T14:33:42;31.30;;;19.23;;
7338;SDS011;33747;49.524;8.390;2023-04-16T14:36:07;27.65;;;18.15;;
7338;SDS011;33747;49.524;8.390;2023-04-16T14:38:32;32.63;;;19.55;;
7338;SDS011;33747;49.524;8.390;2023-04-16T14:40:58;29.40;;;18.27;;
7338;SDS011;33747;49.524;8.390;2023-04-16T14:43:24;29.10;;;19.42;;
7338;SDS011;33747;49.524;8.390;2023-04-16T14:45:50;25.85;;;18.08;;